Hovedside
METAR-TAF:

METAR-TAF

Lufthavner :

Vitebsk, Hviterussland

breddegrad: 55-10N, lengdegrad: 030-13E, høyde over havet: 176 m

Gjeldene værobservasjon

Denne rapporten ble laget for 5 timer og 57 minutter siden, klokken 16:00 UTC
Vind 6 kt fra Sør
Temperatur 26°C
Luftfuktighet 45%
Trykk 1019 hPa
Sikt 10 km eller mer
ingen skyer under 1500 m og ingen bygeskyer

METAR: UMII 181600Z 19003MPS CAVOK 26/13 Q1019 R23/D NOSIG

Tid: 00:57 (21:57 UTC)

Varsel

Denne rapporten ble laget for 7 timer og 57 minutter siden, klokken 14:00 UTC
Varsel gyldig fra 18. klokken 15 UTC til 18. klokken 24 UTC
Vind 8 kt fra Sør med vindkast opp mot 17 kt
Sikt 10 km eller mer
Brutte skyer i en høyde av 2000 ft
Midlertidig
fra 18. klokken 15 UTC til 18. klokken 24 UTC
Vind 27 kt fra skiftende retning
Sikt: 2000 m
Brutte skyer i en høyde av 500 ft
Brutte skyer i en høyde av 1200 ft, Bygeskyer.
torden, regn

TAF: UMII 181400Z 1815/1824 18004G09MPS 9999 BKN020 TEMPO 1815/1824 VRB14MPS 2000 TSRA BKN005 BKN012CB

Værobservasjoner og værvarsel for over 4000 flyplasser (METAR- og TAF-rapporter).

Tilgjengelige stasjoner er representert av de røde og gule prikkene på kartet.

Hold musepekeren over prikken for å se navnet på stasjonen.

Klikk så for å se værobservasjoner og -varsler.

For å forandre kartet kan du klikke på den grønne knappen med svart kryss for å zoome inn, på den grønne knappen med strek for å zoome ut, eller på de grønne pilene for å se tilstøtende kart.


METAR-TAF: